createdAt,value
2022-12-01T00:01:09.495Z,94328.84
2022-12-01T00:03:36.494Z,94323.41
2022-12-01T00:06:09.755Z,94318.09
2022-12-01T00:08:36.475Z,94297.78
2022-12-01T00:11:08.482Z,94303.88
2022-12-01T00:13:35.393Z,94294.59
2022-12-01T00:16:15.424Z,94302.75
2022-12-01T00:18:42.374Z,94304.50
2022-12-01T00:21:16.533Z,94302.09
2022-12-01T00:23:54.825Z,94301.63
2022-12-01T00:26:22.667Z,94290.91
2022-12-01T00:28:54.484Z,94298.41
2022-12-01T00:31:21.496Z,94306.66
2022-12-01T00:33:48.307Z,94301.56
2022-12-01T00:36:15.004Z,94296.63
2022-12-01T00:38:41.844Z,94294.41
2022-12-01T00:41:08.847Z,94295.69
2022-12-01T00:43:35.668Z,94301.91
2022-12-01T00:46:02.664Z,94298.06
2022-12-01T00:48:29.525Z,94298.38
2022-12-01T00:50:56.737Z,94298.41
2022-12-01T00:53:24.750Z,94306.38
2022-12-01T00:55:54.103Z,94289.09
2022-12-01T00:58:21.718Z,94305.09
2022-12-01T01:00:48.988Z,94310.19
2022-12-01T01:03:15.745Z,94313.38
2022-12-01T01:05:43.124Z,94312.91
2022-12-01T01:08:11.317Z,94316.41
2022-12-01T01:10:39.620Z,94313.75
2022-12-01T01:13:06.644Z,94314.19
2022-12-01T01:15:33.846Z,94314.06
2022-12-01T01:18:00.860Z,94309.72
2022-12-01T01:20:27.867Z,94309.44
2022-12-01T01:22:54.595Z,94315.00
2022-12-01T01:25:21.623Z,94312.91
2022-12-01T01:27:48.554Z,94317.81
2022-12-01T01:30:15.533Z,94312.72
2022-12-01T01:32:42.263Z,94302.47
2022-12-01T01:35:09.115Z,94307.53
2022-12-01T01:37:35.844Z,94308.25
2022-12-01T01:40:02.552Z,94313.06
2022-12-01T01:42:29.235Z,94288.38
2022-12-01T01:44:57.644Z,94316.22
2022-12-01T01:47:32.125Z,94310.75
2022-12-01T01:50:06.237Z,94309.34
2022-12-01T01:52:37.664Z,94309.03
2022-12-01T01:55:05.004Z,94305.03
2022-12-01T01:57:33.424Z,94298.56
2022-12-01T02:00:09.395Z,94306.44
2022-12-01T02:02:40.762Z,94302.63
2022-12-01T02:05:11.344Z,94302.94
2022-12-01T02:07:38.812Z,94290.00
2022-12-01T02:10:07.502Z,94298.66
2022-12-01T02:12:52.995Z,94282.50
2022-12-01T02:15:37.312Z,94295.13
2022-12-01T02:18:26.361Z,94284.84
2022-12-01T02:21:15.364Z,94291.91
2022-12-01T02:24:19.245Z,94299.06
2022-12-01T02:26:54.087Z,94296.97
2022-12-01T02:29:48.690Z,94287.34
2022-12-01T02:32:43.664Z,94296.63
2022-12-01T02:35:36.654Z,94302.97
2022-12-01T02:38:24.440Z,94305.47
2022-12-01T02:41:02.445Z,94294.34
2022-12-01T02:43:52.872Z,94289.28
2022-12-01T02:46:33.269Z,94283.28
2022-12-01T02:49:03.123Z,94279.28
2022-12-01T02:51:34.494Z,94275.91
2022-12-01T02:54:03.113Z,94274.00
2022-12-01T02:56:29.953Z,94267.94
2022-12-01T02:58:56.823Z,94268.94
2022-12-01T03:01:29.612Z,94274.72
2022-12-01T03:03:59.352Z,94268.00
2022-12-01T03:06:57.124Z,94273.75
2022-12-01T03:09:38.552Z,94267.88
2022-12-01T03:12:34.506Z,94258.59
2022-12-01T03:15:39.073Z,94257.63
2022-12-01T03:18:08.594Z,94257.63
2022-12-01T03:20:39.783Z,94261.63
2022-12-01T03:23:10.515Z,94260.63
2022-12-01T03:25:40.364Z,94248.34
2022-12-01T03:28:24.857Z,94240.78
2022-12-01T03:30:52.981Z,94263.03
2022-12-01T03:33:31.503Z,94251.06
2022-12-01T03:36:03.572Z,94251.06
2022-12-01T03:38:30.694Z,94244.34
2022-12-01T03:41:01.215Z,94256.03
2022-12-01T03:43:34.274Z,94253.75
2022-12-01T03:46:11.589Z,94263.19
2022-12-01T03:48:39.606Z,94265.75
2022-12-01T03:51:34.384Z,94266.53
2022-12-01T03:54:04.535Z,94261.63
2022-12-01T03:56:36.703Z,94259.41
2022-12-01T03:59:05.584Z,94261.31
2022-12-01T04:01:33.775Z,94257.75
2022-12-01T04:04:06.212Z,94256.97
2022-12-01T04:06:33.604Z,94260.34
2022-12-01T04:09:00.273Z,94268.63
2022-12-01T04:11:45.614Z,94266.91
2022-12-01T04:14:12.337Z,94266.75
2022-12-01T04:16:39.024Z,94263.25
2022-12-01T04:19:05.765Z,94265.47
2022-12-01T04:21:32.645Z,94269.25
2022-12-01T04:24:02.144Z,94266.38
2022-12-01T04:26:33.945Z,94269.91
2022-12-01T04:29:01.886Z,94271.53
2022-12-01T04:31:28.811Z,94273.09
2022-12-01T04:33:57.454Z,94269.59
2022-12-01T04:36:27.973Z,94276.97
2022-12-01T04:38:54.723Z,94263.69
2022-12-01T04:41:21.507Z,94276.03
2022-12-01T04:43:48.423Z,94276.31
2022-12-01T04:46:15.784Z,94278.41
2022-12-01T04:48:43.343Z,94270.53
2022-12-01T04:51:10.047Z,94275.66
2022-12-01T04:53:36.868Z,94274.22
2022-12-01T04:56:04.015Z,94268.63
2022-12-01T04:58:32.034Z,94264.78
2022-12-01T05:01:03.354Z,94274.66
2022-12-01T05:03:30.244Z,94266.50
2022-12-01T05:06:04.785Z,94271.97
2022-12-01T05:08:31.685Z,94268.91
2022-12-01T05:10:58.512Z,94262.53
2022-12-01T05:13:25.204Z,94269.78
2022-12-01T05:15:52.232Z,94275.03
2022-12-01T05:18:19.083Z,94272.22
2022-12-01T05:20:57.870Z,94275.72
2022-12-01T05:23:29.153Z,94274.75
2022-12-01T05:25:56.308Z,94284.03
2022-12-01T05:28:24.985Z,94270.44
2022-12-01T05:30:51.679Z,94289.47
2022-12-01T05:33:18.386Z,94286.25
2022-12-01T05:35:45.091Z,94280.84
2022-12-01T05:38:11.858Z,94285.47
2022-12-01T05:40:38.720Z,94287.84
2022-12-01T05:43:05.835Z,94292.63
2022-12-01T05:45:32.924Z,94292.00
2022-12-01T05:48:00.417Z,94289.94
2022-12-01T05:50:28.884Z,94287.38
2022-12-01T05:52:56.090Z,94285.63
2022-12-01T05:55:22.823Z,94289.47
2022-12-01T05:57:49.528Z,94288.66
2022-12-01T06:00:17.065Z,94287.84
2022-12-01T06:02:44.230Z,94287.25
2022-12-01T06:05:10.989Z,94282.78
2022-12-01T06:07:40.340Z,94285.34
2022-12-01T06:10:09.273Z,94293.16
2022-12-01T06:12:36.986Z,94297.47
2022-12-01T06:15:06.760Z,94293.63
2022-12-01T06:17:38.621Z,94292.34
2022-12-01T06:20:08.390Z,94295.53
2022-12-01T06:22:35.139Z,94295.69
2022-12-01T06:25:01.908Z,94289.78
2022-12-01T06:27:28.698Z,94292.66
2022-12-01T06:29:55.698Z,94295.19
2022-12-01T06:32:22.351Z,94295.53
2022-12-01T06:34:49.068Z,94296.94
2022-12-01T06:37:16.813Z,94294.25
2022-12-01T06:39:43.753Z,94299.84
2022-12-01T06:42:10.760Z,94289.81
2022-12-01T06:44:37.677Z,94289.31
2022-12-01T06:47:04.498Z,94305.00
2022-12-01T06:49:31.258Z,94300.06
2022-12-01T06:51:58.581Z,94299.41
2022-12-01T06:54:27.512Z,94302.63
2022-12-01T06:56:54.237Z,94300.38
2022-12-01T06:59:21.520Z,94285.16
2022-12-01T07:01:48.762Z,94304.03
2022-12-01T07:04:15.571Z,94306.63
2022-12-01T07:06:42.327Z,94290.81
2022-12-01T07:09:09.112Z,94301.84
2022-12-01T07:11:36.996Z,94310.47
2022-12-01T07:14:03.879Z,94307.91
2022-12-01T07:16:30.568Z,94304.06
2022-12-01T07:18:57.450Z,94305.97
2022-12-01T07:21:24.962Z,94303.59
2022-12-01T07:23:51.809Z,94313.03
2022-12-01T07:26:18.972Z,94308.06
2022-12-01T07:28:46.147Z,94312.53
2022-12-01T07:31:18.199Z,94318.28
2022-12-01T07:33:45.114Z,94311.28
2022-12-01T07:36:12.482Z,94297.50
2022-12-01T07:38:39.738Z,94318.28
2022-12-01T07:41:15.161Z,94316.84
2022-12-01T07:43:42.329Z,94312.69
2022-12-01T07:46:22.730Z,94309.66
2022-12-01T07:48:50.274Z,94305.47
2022-12-01T07:51:17.291Z,94297.13
2022-12-01T07:53:45.406Z,94301.13
2022-12-01T07:56:12.693Z,94303.09
2022-12-01T07:58:39.674Z,94312.72
2022-12-01T08:01:08.338Z,94322.75
2022-12-01T08:03:35.681Z,94295.88
2022-12-01T08:06:03.230Z,94315.38
2022-12-01T08:08:32.362Z,94314.06
2022-12-01T08:11:04.460Z,94313.41
2022-12-01T08:13:31.409Z,94317.25
2022-12-01T08:15:58.243Z,94315.78
2022-12-01T08:18:25.072Z,94308.88
2022-12-01T08:20:52.168Z,94316.25
2022-12-01T08:23:18.850Z,94311.06
2022-12-01T08:25:45.588Z,94314.41
2022-12-01T08:28:12.380Z,94306.72
2022-12-01T08:30:39.472Z,94312.44
2022-12-01T08:33:06.192Z,94313.53
2022-12-01T08:35:36.273Z,94306.78
2022-12-01T08:38:03.479Z,94310.56
2022-12-01T08:40:30.384Z,94313.38
2022-12-01T08:42:57.210Z,94300.03
2022-12-01T08:45:23.851Z,94312.13
2022-12-01T08:47:50.767Z,94315.06
2022-12-01T08:50:17.567Z,94310.97
2022-12-01T08:52:44.300Z,94316.56
2022-12-01T08:55:11.336Z,94307.00
2022-12-01T08:57:38.109Z,94332.97
2022-12-01T09:00:05.672Z,94339.75
2022-12-01T09:02:32.516Z,94343.97
2022-12-01T09:04:59.307Z,94339.97
2022-12-01T09:07:26.863Z,94342.78
2022-12-01T09:09:54.234Z,94344.56
2022-12-01T09:12:20.927Z,94329.38
2022-12-01T09:14:49.899Z,94332.78
2022-12-01T09:17:17.688Z,94338.19
2022-12-01T09:19:44.779Z,94339.03
2022-12-01T09:22:12.142Z,94345.22
2022-12-01T09:24:39.481Z,94337.59
2022-12-01T09:27:06.399Z,94337.59
2022-12-01T09:29:33.267Z,94326.22
2022-12-01T09:32:00.649Z,94333.59
2022-12-01T09:34:28.103Z,94338.03
2022-12-01T09:36:57.156Z,94342.75
2022-12-01T09:39:24.269Z,94340.50
2022-12-01T09:41:58.076Z,94333.50
2022-12-01T09:44:39.830Z,94326.06
2022-12-01T09:47:12.754Z,94326.34
2022-12-01T09:49:54.570Z,94328.38
2022-12-01T09:52:22.348Z,94326.94
2022-12-01T09:54:49.623Z,94316.81
2022-12-01T09:57:37.031Z,94321.44
2022-12-01T10:00:12.530Z,94311.13
2022-12-01T10:03:02.367Z,94306.97
2022-12-01T10:06:03.022Z,94312.75
2022-12-01T10:08:37.289Z,94310.25
2022-12-01T10:11:13.700Z,94298.00
2022-12-01T10:13:42.775Z,94301.69
2022-12-01T10:16:16.151Z,94303.44
2022-12-01T10:18:45.969Z,94302.88
2022-12-01T10:21:27.980Z,94303.22
2022-12-01T10:24:02.935Z,94308.25
2022-12-01T10:27:11.190Z,94303.28
2022-12-01T10:29:43.826Z,94301.03
2022-12-01T10:32:19.555Z,94303.34
2022-12-01T10:34:48.001Z,94294.03
2022-12-01T10:37:23.422Z,94310.09
2022-12-01T10:39:52.675Z,94310.28
2022-12-01T10:42:36.790Z,94303.84
2022-12-01T10:45:14.606Z,94300.34
2022-12-01T10:48:17.219Z,94298.38
2022-12-01T10:50:54.787Z,94299.19
2022-12-01T10:53:24.510Z,94301.75
2022-12-01T10:55:59.218Z,94296.44
2022-12-01T10:58:26.451Z,94299.19
2022-12-01T11:01:00.428Z,94282.63
2022-12-01T11:03:34.756Z,94290.22
2022-12-01T11:06:03.436Z,94285.75
2022-12-01T11:09:07.183Z,94282.19
2022-12-01T11:11:40.695Z,94277.50
2022-12-01T11:14:17.943Z,94274.38
2022-12-01T11:16:47.318Z,94275.00
2022-12-01T11:19:34.393Z,94274.66
2022-12-01T11:22:33.727Z,94271.34
2022-12-01T11:25:04.288Z,94278.88
2022-12-01T11:27:49.582Z,94276.81
2022-12-01T11:30:27.568Z,94255.59
2022-12-01T11:32:57.671Z,94273.91
2022-12-01T11:35:30.431Z,94269.06
2022-12-01T11:40:51.731Z,94267.59
2022-12-01T11:43:28.307Z,94270.44
2022-12-01T11:45:57.325Z,94262.69
2022-12-01T11:48:29.520Z,94258.84
2022-12-01T11:51:15.742Z,94262.03
2022-12-01T11:53:43.400Z,94261.03
2022-12-01T11:56:13.845Z,94253.28
2022-12-01T11:58:41.545Z,94255.66
2022-12-01T12:01:35.167Z,94263.41
2022-12-01T12:04:11.739Z,94254.97
2022-12-01T12:07:00.030Z,94259.03
2022-12-01T12:09:57.028Z,94258.78
2022-12-01T12:12:23.721Z,94256.41
2022-12-01T12:15:11.191Z,94253.97
2022-12-01T12:17:42.756Z,94253.03
2022-12-01T12:20:12.973Z,94246.81
2022-12-01T12:22:49.712Z,94239.13
2022-12-01T12:25:30.513Z,94241.84
2022-12-01T12:28:24.607Z,94239.03
2022-12-01T12:31:06.634Z,94235.03
2022-12-01T12:33:47.504Z,94235.03
2022-12-01T12:36:38.825Z,94235.03
2022-12-01T12:39:41.181Z,94240.59
2022-12-01T12:42:32.248Z,94241.28
2022-12-01T12:45:22.151Z,94246.63
2022-12-01T12:48:07.555Z,94241.09
2022-12-01T12:50:38.711Z,94244.47
2022-12-01T12:53:13.258Z,94240.72
2022-12-01T12:55:50.330Z,94243.50
2022-12-01T12:58:24.049Z,94249.81
2022-12-01T13:00:59.444Z,94244.59
2022-12-01T13:03:44.421Z,94240.28
2022-12-01T13:06:18.461Z,94246.25
2022-12-01T13:08:53.486Z,94245.47
2022-12-01T13:11:27.048Z,94236.72
2022-12-01T13:14:08.198Z,94247.06
2022-12-01T13:16:41.885Z,94254.22
2022-12-01T13:19:23.937Z,94251.69
2022-12-01T13:21:51.466Z,94248.50
2022-12-01T13:24:23.374Z,94251.69
2022-12-01T13:26:54.639Z,94251.00
2022-12-01T13:29:23.505Z,94251.78
2022-12-01T13:31:51.861Z,94255.75
2022-12-01T13:34:33.360Z,94250.00
2022-12-01T13:37:00.330Z,94243.88
2022-12-01T13:39:29.168Z,94241.69
2022-12-01T13:42:01.802Z,94238.69
2022-12-01T13:44:40.819Z,94239.91
2022-12-01T13:47:10.761Z,94251.84
2022-12-01T13:49:42.781Z,94251.22
2022-12-01T13:52:22.015Z,94253.56
2022-12-01T13:55:15.458Z,94249.00
2022-12-01T13:57:47.440Z,94255.09
2022-12-01T14:00:27.932Z,94247.97
2022-12-01T14:03:19.547Z,94240.25
2022-12-01T14:05:57.321Z,94253.50
2022-12-01T14:08:29.585Z,94250.13
2022-12-01T14:11:22.320Z,94239.00
2022-12-01T14:14:12.284Z,94235.00
2022-12-01T14:16:52.308Z,94240.59
2022-12-01T14:19:32.838Z,94236.00
2022-12-01T14:22:01.302Z,94231.22
2022-12-01T14:24:52.956Z,94202.50
2022-12-01T14:27:37.989Z,94232.00
2022-12-01T14:30:42.223Z,94226.63
2022-12-01T14:33:39.885Z,94223.03
2022-12-01T14:36:23.968Z,94223.31
2022-12-01T14:39:01.670Z,94217.56
2022-12-01T14:41:43.633Z,94212.97
2022-12-01T14:44:22.558Z,94214.53
2022-12-01T14:46:53.790Z,94222.28
2022-12-01T14:49:30.110Z,94223.66
2022-12-01T14:52:01.262Z,94222.44
2022-12-01T14:54:31.990Z,94236.94
2022-12-01T14:57:06.234Z,94234.34
2022-12-01T14:59:35.139Z,94221.22
2022-12-01T15:02:09.326Z,94232.50
2022-12-01T15:05:09.670Z,94232.69
2022-12-01T15:07:41.704Z,94228.00
2022-12-01T15:10:27.326Z,94226.34
2022-12-01T15:12:54.878Z,94226.16
2022-12-01T15:15:24.522Z,94234.31
2022-12-01T15:17:53.228Z,94226.59
2022-12-01T15:20:30.979Z,94223.00
2022-12-01T15:22:58.814Z,94220.53
2022-12-01T15:25:29.020Z,94220.47
2022-12-01T15:28:30.488Z,94228.41
2022-12-01T15:30:57.796Z,94223.28
2022-12-01T15:33:31.633Z,94208.53
2022-12-01T15:36:01.312Z,94220.69
2022-12-01T15:38:37.290Z,94224.72
2022-12-01T15:43:56.929Z,94228.41
2022-12-01T15:46:30.928Z,94217.13
2022-12-01T15:49:08.790Z,94221.91
2022-12-01T15:51:35.656Z,94237.47
2022-12-01T15:54:02.922Z,94232.56
2022-12-01T15:56:38.460Z,94226.09
2022-12-01T15:59:09.563Z,94218.47
2022-12-01T16:01:37.068Z,94218.09
2022-12-01T16:04:17.746Z,94224.97
2022-12-01T16:06:58.630Z,94226.09
2022-12-01T16:09:33.420Z,94224.88
2022-12-01T16:12:26.649Z,94223.53
2022-12-01T16:15:07.056Z,94225.38
2022-12-01T16:17:48.441Z,94220.41
2022-12-01T16:20:17.092Z,94229.47
2022-12-01T16:22:45.981Z,94225.66
2022-12-01T16:25:30.687Z,94220.28
2022-12-01T16:27:57.806Z,94228.81
2022-12-01T16:30:30.206Z,94228.00
2022-12-01T16:33:02.592Z,94225.84
2022-12-01T16:35:31.830Z,94218.19
2022-12-01T16:37:58.963Z,94218.69
2022-12-01T16:40:26.071Z,94219.13
2022-12-01T16:42:52.746Z,94220.13
2022-12-01T16:45:20.045Z,94218.97
2022-12-01T16:47:48.399Z,94219.50
2022-12-01T16:50:16.851Z,94215.88
2022-12-01T16:52:45.329Z,94219.63
2022-12-01T16:55:42.021Z,94214.91
2022-12-01T16:58:08.919Z,94220.84
2022-12-01T17:00:35.808Z,94220.84
2022-12-01T17:03:02.745Z,94204.88
2022-12-01T17:05:29.627Z,94220.31
2022-12-01T17:07:56.551Z,94218.72
2022-12-01T17:10:24.243Z,94220.69
2022-12-01T17:12:51.282Z,94223.25
2022-12-01T17:15:18.230Z,94226.38
2022-12-01T17:17:45.101Z,94222.03
2022-12-01T17:20:12.662Z,94216.50
2022-12-01T17:22:39.283Z,94213.94
2022-12-01T17:25:06.728Z,94211.75
2022-12-01T17:27:33.518Z,94213.34
2022-12-01T17:30:00.417Z,94209.00
2022-12-01T17:32:27.827Z,94208.44
2022-12-01T17:34:55.007Z,94208.09
2022-12-01T17:37:21.888Z,94210.78
2022-12-01T17:39:49.662Z,94196.22
2022-12-01T17:42:16.771Z,94197.09
2022-12-01T17:44:43.533Z,94203.94
2022-12-01T17:47:10.511Z,94206.06
2022-12-01T17:49:37.640Z,94209.78
2022-12-01T17:52:05.469Z,94198.28
2022-12-01T17:54:32.290Z,94199.50
2022-12-01T17:56:59.033Z,94205.09
2022-12-01T17:59:25.840Z,94215.50
2022-12-01T18:01:52.722Z,94221.22
2022-12-01T18:04:19.511Z,94209.38
2022-12-01T18:06:50.789Z,94217.25
2022-12-01T18:09:21.801Z,94212.81
2022-12-01T18:11:48.847Z,94222.56
2022-12-01T18:14:17.994Z,94218.41
2022-12-01T18:16:45.364Z,94214.44
2022-12-01T18:19:12.686Z,94217.00
2022-12-01T18:21:39.789Z,94207.13
2022-12-01T18:24:11.476Z,94209.97
2022-12-01T18:26:40.650Z,94211.41
2022-12-01T18:29:12.705Z,94205.38
2022-12-01T18:31:40.065Z,94213.53
2022-12-01T18:34:07.573Z,94211.69
2022-12-01T18:36:36.619Z,94224.72
2022-12-01T18:39:04.763Z,94224.59
2022-12-01T18:41:31.725Z,94220.88
2022-12-01T18:43:58.653Z,94211.41
2022-12-01T18:46:25.550Z,94223.28
2022-12-01T18:49:00.960Z,94224.44
2022-12-01T18:51:32.317Z,94211.69
2022-12-01T18:54:00.330Z,94215.47
2022-12-01T18:56:27.940Z,94211.56
2022-12-01T18:59:08.926Z,94211.06
2022-12-01T19:01:39.982Z,94212.03
2022-12-01T19:04:07.907Z,94216.53
2022-12-01T19:06:35.820Z,94219.81
2022-12-01T19:09:04.548Z,94211.50
2022-12-01T19:11:31.859Z,94213.28
2022-12-01T19:13:58.729Z,94211.50
2022-12-01T19:16:26.052Z,94215.41
2022-12-01T19:18:53.007Z,94203.53
2022-12-01T19:21:20.441Z,94216.38
2022-12-01T19:23:47.749Z,94213.25
2022-12-01T19:26:17.931Z,94212.56
2022-12-01T19:28:48.026Z,94218.94
2022-12-01T19:31:23.809Z,94222.13
2022-12-01T19:33:51.909Z,94214.59
2022-12-01T19:36:20.939Z,94216.03
2022-12-01T19:38:48.079Z,94215.84
2022-12-01T19:41:15.448Z,94206.00
2022-12-01T19:43:42.646Z,94229.06
2022-12-01T19:46:13.178Z,94225.34
2022-12-01T19:48:39.979Z,94223.81
2022-12-01T19:51:07.343Z,94224.78
2022-12-01T19:53:34.410Z,94222.66
2022-12-01T19:56:05.166Z,94220.88
2022-12-01T19:58:35.098Z,94227.19
2022-12-01T20:01:13.500Z,94228.50
2022-12-01T20:03:40.880Z,94216.81
2022-12-01T20:06:10.394Z,94217.88
2022-12-01T20:08:37.034Z,94210.34
2022-12-01T20:11:04.898Z,94216.28
2022-12-01T20:13:36.649Z,94217.00
2022-12-01T20:16:23.644Z,94212.91
2022-12-01T20:18:52.902Z,94212.91
2022-12-01T20:21:23.510Z,94208.72
2022-12-01T20:23:53.971Z,94207.59
2022-12-01T20:26:24.893Z,94208.09
2022-12-01T20:28:54.289Z,94203.25
2022-12-01T20:31:24.751Z,94210.59
2022-12-01T20:33:53.263Z,94203.25
2022-12-01T20:36:20.473Z,94201.94
2022-12-01T20:38:47.230Z,94215.91
2022-12-01T20:41:14.322Z,94208.03
2022-12-01T20:43:41.311Z,94199.00
2022-12-01T20:46:09.300Z,94205.13
2022-12-01T20:48:36.191Z,94206.09
2022-12-01T20:51:04.621Z,94206.09
2022-12-01T20:53:31.466Z,94209.44
2022-12-01T20:56:02.761Z,94216.09
2022-12-01T20:58:32.056Z,94214.22
2022-12-01T21:01:08.711Z,94219.00
2022-12-01T21:03:35.512Z,94214.16
2022-12-01T21:06:02.939Z,94209.28
2022-12-01T21:08:29.644Z,94207.94
2022-12-01T21:10:56.305Z,94208.94
2022-12-01T21:13:42.294Z,94209.13
2022-12-01T21:16:24.679Z,94206.38
2022-12-01T21:18:52.834Z,94210.72
2022-12-01T21:21:24.164Z,94203.19
2022-12-01T21:24:01.103Z,94206.38
2022-12-01T21:26:27.750Z,94208.94
2022-12-01T21:28:59.397Z,94201.41
2022-12-01T21:31:26.701Z,94197.84
2022-12-01T21:33:54.153Z,94201.66
2022-12-01T21:36:22.495Z,94204.16
2022-12-01T21:38:51.380Z,94206.09
2022-12-01T21:41:25.735Z,94198.22
2022-12-01T21:43:54.099Z,94193.75
2022-12-01T21:46:20.744Z,94196.16
2022-12-01T21:48:47.576Z,94204.03
2022-12-01T21:51:14.115Z,94203.59
2022-12-01T21:53:40.749Z,94204.50
2022-12-01T21:56:16.760Z,94206.19
2022-12-01T21:58:44.015Z,94207.34
2022-12-01T22:01:25.751Z,94201.22
2022-12-01T22:03:52.412Z,94196.88
2022-12-01T22:06:30.080Z,94199.44
2022-12-01T22:09:02.053Z,94200.41
2022-12-01T22:11:30.596Z,94191.09
2022-12-01T22:14:09.373Z,94193.84
2022-12-01T22:16:38.622Z,94182.50
2022-12-01T22:19:30.642Z,94192.88
2022-12-01T22:22:01.688Z,94197.56
2022-12-01T22:24:40.041Z,94193.31
2022-12-01T22:27:20.015Z,94189.16
2022-12-01T22:29:48.213Z,94185.97
2022-12-01T22:32:14.702Z,94183.47
2022-12-01T22:34:53.448Z,94191.72
2022-12-01T22:37:22.391Z,94184.72
2022-12-01T22:39:52.581Z,94178.34
2022-12-01T22:42:22.544Z,94189.06
2022-12-01T22:44:49.475Z,94167.06
2022-12-01T22:47:16.307Z,94175.06
2022-12-01T22:49:42.927Z,94170.63
2022-12-01T22:52:15.362Z,94181.78
2022-12-01T22:54:46.747Z,94172.66
2022-12-01T22:57:33.367Z,94179.66
2022-12-01T23:00:14.802Z,94171.34
2022-12-01T23:02:41.463Z,94175.69
2022-12-01T23:05:21.652Z,94171.50
2022-12-01T23:07:48.355Z,94175.59
2022-12-01T23:10:23.070Z,94169.13
2022-12-01T23:12:51.742Z,94170.56
2022-12-01T23:15:38.351Z,94168.16
2022-12-01T23:18:15.897Z,94175.56
2022-12-01T23:21:00.099Z,94169.69
2022-12-01T23:23:29.122Z,94177.28
2022-12-01T23:25:56.149Z,94163.25
2022-12-01T23:28:22.967Z,94166.47
2022-12-01T23:30:52.888Z,94172.22
2022-12-01T23:33:23.629Z,94161.22
2022-12-01T23:36:06.307Z,94160.16
2022-12-01T23:38:41.434Z,94162.28
2022-12-01T23:41:12.396Z,94156.16
2022-12-01T23:43:40.447Z,94157.41
2022-12-01T23:46:10.902Z,94155.66
2022-12-01T23:48:41.175Z,94151.91
2022-12-01T23:51:15.111Z,94146.06
2022-12-01T23:53:41.874Z,94147.41
2022-12-01T23:56:12.764Z,94147.56
2022-12-01T23:58:39.339Z,94143.31
